sensor_id;sensor_type;location;lat;lon;timestamp;temperature;humidity
7700;DHT22;3892;47.794;19.126;2022-12-08T00:01:33;8.90;38.80
7700;DHT22;3892;47.794;19.126;2022-12-08T00:04:02;8.80;38.60
7700;DHT22;3892;47.794;19.126;2022-12-08T00:06:33;8.80;38.60
7700;DHT22;3892;47.794;19.126;2022-12-08T00:09:19;8.60;38.70
7700;DHT22;3892;47.794;19.126;2022-12-08T00:11:55;8.50;39.10
7700;DHT22;3892;47.794;19.126;2022-12-08T00:14:25;8.30;39.20
7700;DHT22;3892;47.794;19.126;2022-12-08T00:16:53;8.20;39.30
7700;DHT22;3892;47.794;19.126;2022-12-08T00:19:20;8.20;39.50
7700;DHT22;3892;47.794;19.126;2022-12-08T00:21:49;8.20;39.50
7700;DHT22;3892;47.794;19.126;2022-12-08T00:24:16;8.10;39.50
7700;DHT22;3892;47.794;19.126;2022-12-08T00:26:43;8.10;39.70
7700;DHT22;3892;47.794;19.126;2022-12-08T00:29:10;8.20;39.90
7700;DHT22;3892;47.794;19.126;2022-12-08T00:31:38;8.20;40.30
7700;DHT22;3892;47.794;19.126;2022-12-08T00:34:05;8.30;39.50
7700;DHT22;3892;47.794;19.126;2022-12-08T00:36:32;8.40;39.30
7700;DHT22;3892;47.794;19.126;2022-12-08T00:39:00;8.40;39.70
7700;DHT22;3892;47.794;19.126;2022-12-08T00:41:27;8.50;39.00
7700;DHT22;3892;47.794;19.126;2022-12-08T00:44:13;8.50;38.60
7700;DHT22;3892;47.794;19.126;2022-12-08T00:46:42;8.50;38.40
7700;DHT22;3892;47.794;19.126;2022-12-08T00:49:09;8.60;38.30
7700;DHT22;3892;47.794;19.126;2022-12-08T00:51:36;8.50;38.70
7700;DHT22;3892;47.794;19.126;2022-12-08T00:54:05;8.50;38.10
7700;DHT22;3892;47.794;19.126;2022-12-08T00:56:32;8.50;38.20
7700;DHT22;3892;47.794;19.126;2022-12-08T00:58:59;8.50;38.20
7700;DHT22;3892;47.794;19.126;2022-12-08T01:01:26;8.50;38.20
7700;DHT22;3892;47.794;19.126;2022-12-08T01:03:53;8.50;38.20
7700;DHT22;3892;47.794;19.126;2022-12-08T01:06:20;8.50;38.20
7700;DHT22;3892;47.794;19.126;2022-12-08T01:08:47;8.50;38.00
7700;DHT22;3892;47.794;19.126;2022-12-08T01:11:17;8.50;38.10
7700;DHT22;3892;47.794;19.126;2022-12-08T01:13:45;8.40;38.30
7700;DHT22;3892;47.794;19.126;2022-12-08T01:16:18;8.40;38.30
7700;DHT22;3892;47.794;19.126;2022-12-08T01:18:45;8.40;38.30
7700;DHT22;3892;47.794;19.126;2022-12-08T01:21:12;8.40;38.30
7700;DHT22;3892;47.794;19.126;2022-12-08T01:23:39;8.40;38.10
7700;DHT22;3892;47.794;19.126;2022-12-08T01:26:08;8.50;38.00
7700;DHT22;3892;47.794;19.126;2022-12-08T01:28:38;8.50;37.90
7700;DHT22;3892;47.794;19.126;2022-12-08T01:31:10;8.50;38.00
7700;DHT22;3892;47.794;19.126;2022-12-08T01:33:38;8.50;38.10
7700;DHT22;3892;47.794;19.126;2022-12-08T01:36:05;8.40;38.00
7700;DHT22;3892;47.794;19.126;2022-12-08T01:38:32;8.40;38.00
7700;DHT22;3892;47.794;19.126;2022-12-08T01:40:59;8.40;38.00
7700;DHT22;3892;47.794;19.126;2022-12-08T01:43:53;8.30;38.10
7700;DHT22;3892;47.794;19.126;2022-12-08T01:46:20;8.30;38.40
7700;DHT22;3892;47.794;19.126;2022-12-08T01:48:48;8.40;38.10
7700;DHT22;3892;47.794;19.126;2022-12-08T01:51:16;8.30;37.80
7700;DHT22;3892;47.794;19.126;2022-12-08T01:53:43;8.30;38.20
7700;DHT22;3892;47.794;19.126;2022-12-08T01:56:13;8.30;37.70
7700;DHT22;3892;47.794;19.126;2022-12-08T01:58:43;8.30;37.80
7700;DHT22;3892;47.794;19.126;2022-12-08T02:01:13;8.30;37.90
7700;DHT22;3892;47.794;19.126;2022-12-08T02:03:42;8.40;37.90
7700;DHT22;3892;47.794;19.126;2022-12-08T02:06:10;8.30;37.80
7700;DHT22;3892;47.794;19.126;2022-12-08T02:08:39;8.40;37.80
7700;DHT22;3892;47.794;19.126;2022-12-08T02:11:08;8.40;37.90
7700;DHT22;3892;47.794;19.126;2022-12-08T02:13:35;8.40;37.90
7700;DHT22;3892;47.794;19.126;2022-12-08T02:16:06;8.40;38.00
7700;DHT22;3892;47.794;19.126;2022-12-08T02:18:52;8.40;37.90
7700;DHT22;3892;47.794;19.126;2022-12-08T02:21:27;8.40;37.90
7700;DHT22;3892;47.794;19.126;2022-12-08T02:23:58;8.40;37.90
7700;DHT22;3892;47.794;19.126;2022-12-08T02:26:50;8.40;37.90
7700;DHT22;3892;47.794;19.126;2022-12-08T02:29:46;8.30;38.00
7700;DHT22;3892;47.794;19.126;2022-12-08T02:32:34;8.30;38.40
7700;DHT22;3892;47.794;19.126;2022-12-08T02:35:10;8.30;38.50
7700;DHT22;3892;47.794;19.126;2022-12-08T02:37:42;8.30;38.50
7700;DHT22;3892;47.794;19.126;2022-12-08T02:40:15;8.30;38.40
7700;DHT22;3892;47.794;19.126;2022-12-08T02:42:48;8.40;38.30
7700;DHT22;3892;47.794;19.126;2022-12-08T02:45:23;8.40;38.20
7700;DHT22;3892;47.794;19.126;2022-12-08T02:47:51;8.40;38.20
7700;DHT22;3892;47.794;19.126;2022-12-08T02:50:20;8.40;38.20
7700;DHT22;3892;47.794;19.126;2022-12-08T02:52:47;8.40;38.30
7700;DHT22;3892;47.794;19.126;2022-12-08T02:55:19;8.40;38.30
7700;DHT22;3892;47.794;19.126;2022-12-08T02:58:19;8.50;38.40
7700;DHT22;3892;47.794;19.126;2022-12-08T03:01:00;8.50;38.50
7700;DHT22;3892;47.794;19.126;2022-12-08T03:03:39;8.40;38.60
7700;DHT22;3892;47.794;19.126;2022-12-08T03:06:19;8.40;38.80
7700;DHT22;3892;47.794;19.126;2022-12-08T03:08:53;8.40;38.90
7700;DHT22;3892;47.794;19.126;2022-12-08T03:11:25;8.40;38.90
7700;DHT22;3892;47.794;19.126;2022-12-08T03:13:56;8.50;38.90
7700;DHT22;3892;47.794;19.126;2022-12-08T03:16:26;8.50;38.80
7700;DHT22;3892;47.794;19.126;2022-12-08T03:19:06;8.50;38.80
7700;DHT22;3892;47.794;19.126;2022-12-08T03:21:37;8.50;38.60
7700;DHT22;3892;47.794;19.126;2022-12-08T03:24:06;8.60;38.80
7700;DHT22;3892;47.794;19.126;2022-12-08T03:26:40;8.50;38.90
7700;DHT22;3892;47.794;19.126;2022-12-08T03:29:09;8.50;39.10
7700;DHT22;3892;47.794;19.126;2022-12-08T03:31:40;8.50;39.30
7700;DHT22;3892;47.794;19.126;2022-12-08T03:34:11;8.50;39.30
7700;DHT22;3892;47.794;19.126;2022-12-08T03:36:43;8.50;39.30
7700;DHT22;3892;47.794;19.126;2022-12-08T03:39:10;8.60;39.20
7700;DHT22;3892;47.794;19.126;2022-12-08T03:41:37;8.60;39.00
7700;DHT22;3892;47.794;19.126;2022-12-08T03:44:04;8.60;38.80
7700;DHT22;3892;47.794;19.126;2022-12-08T03:46:31;8.70;38.80
7700;DHT22;3892;47.794;19.126;2022-12-08T03:48:58;8.60;38.80
7700;DHT22;3892;47.794;19.126;2022-12-08T03:51:25;8.60;38.80
7700;DHT22;3892;47.794;19.126;2022-12-08T03:53:54;8.60;38.80
7700;DHT22;3892;47.794;19.126;2022-12-08T03:56:23;8.70;38.70
7700;DHT22;3892;47.794;19.126;2022-12-08T03:58:51;8.70;38.60
7700;DHT22;3892;47.794;19.126;2022-12-08T04:01:18;8.70;38.70
7700;DHT22;3892;47.794;19.126;2022-12-08T04:03:45;8.70;38.90
7700;DHT22;3892;47.794;19.126;2022-12-08T04:06:12;8.60;39.00
7700;DHT22;3892;47.794;19.126;2022-12-08T04:08:39;8.50;39.20
7700;DHT22;3892;47.794;19.126;2022-12-08T04:11:08;8.40;39.10
7700;DHT22;3892;47.794;19.126;2022-12-08T04:13:36;8.40;39.30
7700;DHT22;3892;47.794;19.126;2022-12-08T04:16:04;8.40;39.50
7700;DHT22;3892;47.794;19.126;2022-12-08T04:18:32;8.30;39.70
7700;DHT22;3892;47.794;19.126;2022-12-08T04:20:59;8.30;40.00
7700;DHT22;3892;47.794;19.126;2022-12-08T04:23:26;8.30;40.10
7700;DHT22;3892;47.794;19.126;2022-12-08T04:25:53;8.30;40.20
7700;DHT22;3892;47.794;19.126;2022-12-08T04:28:22;8.20;40.20
7700;DHT22;3892;47.794;19.126;2022-12-08T04:30:49;8.20;40.20
7700;DHT22;3892;47.794;19.126;2022-12-08T04:33:16;8.30;40.30
7700;DHT22;3892;47.794;19.126;2022-12-08T04:35:43;8.30;40.10
7700;DHT22;3892;47.794;19.126;2022-12-08T04:38:10;8.40;40.10
7700;DHT22;3892;47.794;19.126;2022-12-08T04:40:37;8.30;40.00
7700;DHT22;3892;47.794;19.126;2022-12-08T04:43:05;8.30;40.10
7700;DHT22;3892;47.794;19.126;2022-12-08T04:45:33;8.40;40.10
7700;DHT22;3892;47.794;19.126;2022-12-08T04:48:01;8.30;40.10
7700;DHT22;3892;47.794;19.126;2022-12-08T04:50:28;8.40;40.10
7700;DHT22;3892;47.794;19.126;2022-12-08T04:52:55;8.40;40.20
7700;DHT22;3892;47.794;19.126;2022-12-08T04:55:22;8.50;40.20
7700;DHT22;3892;47.794;19.126;2022-12-08T04:57:49;8.50;40.10
7700;DHT22;3892;47.794;19.126;2022-12-08T05:00:17;8.50;40.00
7700;DHT22;3892;47.794;19.126;2022-12-08T05:02:45;8.50;40.10
7700;DHT22;3892;47.794;19.126;2022-12-08T05:05:12;8.60;39.80
7700;DHT22;3892;47.794;19.126;2022-12-08T05:07:39;8.60;39.70
7700;DHT22;3892;47.794;19.126;2022-12-08T05:10:07;8.60;39.70
7700;DHT22;3892;47.794;19.126;2022-12-08T05:12:34;8.70;39.60
7700;DHT22;3892;47.794;19.126;2022-12-08T05:15:01;8.70;40.10
7700;DHT22;3892;47.794;19.126;2022-12-08T05:17:28;8.70;39.60
7700;DHT22;3892;47.794;19.126;2022-12-08T05:19:56;8.70;39.70
7700;DHT22;3892;47.794;19.126;2022-12-08T05:22:23;8.70;39.80
7700;DHT22;3892;47.794;19.126;2022-12-08T05:24:50;8.70;39.80
7700;DHT22;3892;47.794;19.126;2022-12-08T05:27:17;8.70;39.80
7700;DHT22;3892;47.794;19.126;2022-12-08T05:29:44;8.70;39.80
7700;DHT22;3892;47.794;19.126;2022-12-08T05:32:12;8.60;39.80
7700;DHT22;3892;47.794;19.126;2022-12-08T05:34:39;8.50;39.80
7700;DHT22;3892;47.794;19.126;2022-12-08T05:37:08;8.50;40.00
7700;DHT22;3892;47.794;19.126;2022-12-08T05:39:35;8.50;40.10
7700;DHT22;3892;47.794;19.126;2022-12-08T05:42:02;8.60;40.10
7700;DHT22;3892;47.794;19.126;2022-12-08T05:44:29;8.60;40.00
7700;DHT22;3892;47.794;19.126;2022-12-08T05:46:56;8.60;39.90
7700;DHT22;3892;47.794;19.126;2022-12-08T05:49:23;8.60;40.00
7700;DHT22;3892;47.794;19.126;2022-12-08T05:51:50;8.60;40.00
7700;DHT22;3892;47.794;19.126;2022-12-08T05:54:18;8.70;40.10
7700;DHT22;3892;47.794;19.126;2022-12-08T05:56:45;8.70;39.90
7700;DHT22;3892;47.794;19.126;2022-12-08T05:59:14;8.70;39.90
7700;DHT22;3892;47.794;19.126;2022-12-08T06:01:41;8.60;39.90
7700;DHT22;3892;47.794;19.126;2022-12-08T06:04:09;8.60;39.90
7700;DHT22;3892;47.794;19.126;2022-12-08T06:06:36;8.50;40.10
7700;DHT22;3892;47.794;19.126;2022-12-08T06:09:03;8.60;40.20
7700;DHT22;3892;47.794;19.126;2022-12-08T06:11:32;8.60;40.30
7700;DHT22;3892;47.794;19.126;2022-12-08T06:13:59;8.70;40.20
7700;DHT22;3892;47.794;19.126;2022-12-08T06:16:28;8.70;40.80
7700;DHT22;3892;47.794;19.126;2022-12-08T06:18:55;8.80;40.20
7700;DHT22;3892;47.794;19.126;2022-12-08T06:21:22;8.80;40.20
7700;DHT22;3892;47.794;19.126;2022-12-08T06:23:51;8.80;40.00
7700;DHT22;3892;47.794;19.126;2022-12-08T06:26:18;8.80;39.90
7700;DHT22;3892;47.794;19.126;2022-12-08T06:28:47;8.80;39.80
7700;DHT22;3892;47.794;19.126;2022-12-08T06:31:17;8.80;39.80
7700;DHT22;3892;47.794;19.126;2022-12-08T06:33:44;8.80;39.60
7700;DHT22;3892;47.794;19.126;2022-12-08T06:36:13;8.80;39.50
7700;DHT22;3892;47.794;19.126;2022-12-08T06:38:41;8.80;39.60
7700;DHT22;3892;47.794;19.126;2022-12-08T06:41:09;8.60;39.70
7700;DHT22;3892;47.794;19.126;2022-12-08T06:43:36;8.60;39.80
7700;DHT22;3892;47.794;19.126;2022-12-08T06:46:07;8.60;39.90
7700;DHT22;3892;47.794;19.126;2022-12-08T06:48:34;8.60;40.10
7700;DHT22;3892;47.794;19.126;2022-12-08T06:51:06;8.60;40.10
7700;DHT22;3892;47.794;19.126;2022-12-08T06:53:33;8.70;40.20
7700;DHT22;3892;47.794;19.126;2022-12-08T06:56:00;8.70;40.20
7700;DHT22;3892;47.794;19.126;2022-12-08T06:58:27;8.80;40.30
7700;DHT22;3892;47.794;19.126;2022-12-08T07:00:54;8.80;40.40
7700;DHT22;3892;47.794;19.126;2022-12-08T07:03:23;8.80;40.30
7700;DHT22;3892;47.794;19.126;2022-12-08T07:05:54;8.80;40.40
7700;DHT22;3892;47.794;19.126;2022-12-08T07:08:22;8.90;40.40
7700;DHT22;3892;47.794;19.126;2022-12-08T07:10:49;8.90;40.50
7700;DHT22;3892;47.794;19.126;2022-12-08T07:13:16;8.90;40.40
7700;DHT22;3892;47.794;19.126;2022-12-08T07:15:43;8.90;40.30
7700;DHT22;3892;47.794;19.126;2022-12-08T07:18:10;8.90;40.40
7700;DHT22;3892;47.794;19.126;2022-12-08T07:20:38;8.90;40.20
7700;DHT22;3892;47.794;19.126;2022-12-08T07:23:05;8.90;40.20
7700;DHT22;3892;47.794;19.126;2022-12-08T07:25:32;8.90;40.20
7700;DHT22;3892;47.794;19.126;2022-12-08T07:27:59;8.90;40.10
7700;DHT22;3892;47.794;19.126;2022-12-08T07:30:26;9.00;40.10
7700;DHT22;3892;47.794;19.126;2022-12-08T07:32:53;9.00;40.10
7700;DHT22;3892;47.794;19.126;2022-12-08T07:35:20;9.00;40.20
7700;DHT22;3892;47.794;19.126;2022-12-08T07:37:48;9.10;40.30
7700;DHT22;3892;47.794;19.126;2022-12-08T07:40:15;9.10;40.20
7700;DHT22;3892;47.794;19.126;2022-12-08T07:42:42;9.10;40.20
7700;DHT22;3892;47.794;19.126;2022-12-08T07:45:09;9.10;40.20
7700;DHT22;3892;47.794;19.126;2022-12-08T07:47:36;9.20;40.40
7700;DHT22;3892;47.794;19.126;2022-12-08T07:50:04;9.20;40.40
7700;DHT22;3892;47.794;19.126;2022-12-08T07:52:33;9.30;40.40
7700;DHT22;3892;47.794;19.126;2022-12-08T07:55:01;9.30;40.40
7700;DHT22;3892;47.794;19.126;2022-12-08T07:57:29;9.30;40.40
7700;DHT22;3892;47.794;19.126;2022-12-08T07:59:55;9.30;41.00
7700;DHT22;3892;47.794;19.126;2022-12-08T08:02:22;9.30;40.60
7700;DHT22;3892;47.794;19.126;2022-12-08T08:04:50;9.30;40.70
7700;DHT22;3892;47.794;19.126;2022-12-08T08:07:17;9.40;40.80
7700;DHT22;3892;47.794;19.126;2022-12-08T08:09:44;9.30;40.70
7700;DHT22;3892;47.794;19.126;2022-12-08T08:12:12;9.40;40.70
7700;DHT22;3892;47.794;19.126;2022-12-08T08:14:39;9.50;40.70
7700;DHT22;3892;47.794;19.126;2022-12-08T08:17:06;9.50;40.80
7700;DHT22;3892;47.794;19.126;2022-12-08T08:19:33;9.50;40.70
7700;DHT22;3892;47.794;19.126;2022-12-08T08:22:01;9.60;40.80
7700;DHT22;3892;47.794;19.126;2022-12-08T08:24:28;9.60;40.60
7700;DHT22;3892;47.794;19.126;2022-12-08T08:26:55;9.70;40.60
7700;DHT22;3892;47.794;19.126;2022-12-08T08:29:23;9.70;40.60
7700;DHT22;3892;47.794;19.126;2022-12-08T08:31:50;9.80;40.70
7700;DHT22;3892;47.794;19.126;2022-12-08T08:34:17;9.80;40.50
7700;DHT22;3892;47.794;19.126;2022-12-08T08:36:44;9.80;40.90
7700;DHT22;3892;47.794;19.126;2022-12-08T08:39:11;9.80;41.10
7700;DHT22;3892;47.794;19.126;2022-12-08T08:41:38;9.70;40.80
7700;DHT22;3892;47.794;19.126;2022-12-08T08:44:05;9.80;40.90
7700;DHT22;3892;47.794;19.126;2022-12-08T08:46:34;9.80;41.00
7700;DHT22;3892;47.794;19.126;2022-12-08T08:49:01;9.90;41.00
7700;DHT22;3892;47.794;19.126;2022-12-08T08:51:28;9.90;41.10
7700;DHT22;3892;47.794;19.126;2022-12-08T08:53:55;10.00;40.20
7700;DHT22;3892;47.794;19.126;2022-12-08T08:56:22;10.00;40.00
7700;DHT22;3892;47.794;19.126;2022-12-08T08:58:51;10.00;41.30
7700;DHT22;3892;47.794;19.126;2022-12-08T09:01:21;10.00;41.30
7700;DHT22;3892;47.794;19.126;2022-12-08T09:03:50;10.10;41.40
7700;DHT22;3892;47.794;19.126;2022-12-08T09:06:17;10.20;40.60
7700;DHT22;3892;47.794;19.126;2022-12-08T09:08:45;10.20;41.10
7700;DHT22;3892;47.794;19.126;2022-12-08T09:11:13;10.30;41.40
7700;DHT22;3892;47.794;19.126;2022-12-08T09:13:40;10.40;41.30
7700;DHT22;3892;47.794;19.126;2022-12-08T09:16:09;10.30;41.00
7700;DHT22;3892;47.794;19.126;2022-12-08T09:18:37;10.30;41.10
7700;DHT22;3892;47.794;19.126;2022-12-08T09:21:06;10.30;40.80
7700;DHT22;3892;47.794;19.126;2022-12-08T09:23:33;10.40;41.20
7700;DHT22;3892;47.794;19.126;2022-12-08T09:26:01;10.50;41.30
7700;DHT22;3892;47.794;19.126;2022-12-08T09:28:29;10.50;40.80
7700;DHT22;3892;47.794;19.126;2022-12-08T09:30:56;10.60;40.80
7700;DHT22;3892;47.794;19.126;2022-12-08T09:33:24;10.60;40.10
7700;DHT22;3892;47.794;19.126;2022-12-08T09:35:52;10.60;40.00
7700;DHT22;3892;47.794;19.126;2022-12-08T09:38:20;10.60;39.90
7700;DHT22;3892;47.794;19.126;2022-12-08T09:40:49;10.50;40.40
7700;DHT22;3892;47.794;19.126;2022-12-08T09:43:24;10.50;40.60
7700;DHT22;3892;47.794;19.126;2022-12-08T09:45:57;10.50;40.40
7700;DHT22;3892;47.794;19.126;2022-12-08T09:48:30;10.50;40.70
7700;DHT22;3892;47.794;19.126;2022-12-08T09:50:58;10.50;40.10
7700;DHT22;3892;47.794;19.126;2022-12-08T09:53:29;10.60;40.20
7700;DHT22;3892;47.794;19.126;2022-12-08T09:56:00;10.50;39.60
7700;DHT22;3892;47.794;19.126;2022-12-08T09:58:37;10.50;39.50
7700;DHT22;3892;47.794;19.126;2022-12-08T10:01:08;10.50;39.50
7700;DHT22;3892;47.794;19.126;2022-12-08T10:03:35;10.50;39.50
7700;DHT22;3892;47.794;19.126;2022-12-08T10:06:08;10.50;39.50
7700;DHT22;3892;47.794;19.126;2022-12-08T10:08:44;10.60;39.70
7700;DHT22;3892;47.794;19.126;2022-12-08T10:11:15;10.70;39.60
7700;DHT22;3892;47.794;19.126;2022-12-08T10:13:51;10.80;39.40
7700;DHT22;3892;47.794;19.126;2022-12-08T10:16:26;10.80;39.30
7700;DHT22;3892;47.794;19.126;2022-12-08T10:19:00;10.80;39.40
7700;DHT22;3892;47.794;19.126;2022-12-08T10:21:29;10.80;39.10
7700;DHT22;3892;47.794;19.126;2022-12-08T10:24:03;10.80;39.30
7700;DHT22;3892;47.794;19.126;2022-12-08T10:26:30;10.80;39.30
7700;DHT22;3892;47.794;19.126;2022-12-08T10:28:59;10.80;39.40
7700;DHT22;3892;47.794;19.126;2022-12-08T10:31:29;10.80;39.40
7700;DHT22;3892;47.794;19.126;2022-12-08T10:33:58;10.80;39.30
7700;DHT22;3892;47.794;19.126;2022-12-08T10:36:49;10.80;39.30
7700;DHT22;3892;47.794;19.126;2022-12-08T10:39:32;10.80;39.10
7700;DHT22;3892;47.794;19.126;2022-12-08T10:42:02;10.80;39.00
7700;DHT22;3892;47.794;19.126;2022-12-08T10:44:32;10.80;38.80
7700;DHT22;3892;47.794;19.126;2022-12-08T10:46:59;10.80;38.50
7700;DHT22;3892;47.794;19.126;2022-12-08T10:49:36;10.80;38.70
7700;DHT22;3892;47.794;19.126;2022-12-08T10:52:08;10.80;38.80
7700;DHT22;3892;47.794;19.126;2022-12-08T10:54:36;10.80;38.50
7700;DHT22;3892;47.794;19.126;2022-12-08T10:57:18;10.80;38.60
7700;DHT22;3892;47.794;19.126;2022-12-08T10:59:45;10.80;38.80
7700;DHT22;3892;47.794;19.126;2022-12-08T11:02:18;10.80;38.60
7700;DHT22;3892;47.794;19.126;2022-12-08T11:04:45;10.80;38.60
7700;DHT22;3892;47.794;19.126;2022-12-08T11:07:20;10.90;38.70
7700;DHT22;3892;47.794;19.126;2022-12-08T11:09:53;10.90;38.60
7700;DHT22;3892;47.794;19.126;2022-12-08T11:12:22;10.80;39.10
7700;DHT22;3892;47.794;19.126;2022-12-08T11:14:57;10.80;38.50
7700;DHT22;3892;47.794;19.126;2022-12-08T11:17:34;10.80;38.50
7700;DHT22;3892;47.794;19.126;2022-12-08T11:20:19;10.80;38.60
7700;DHT22;3892;47.794;19.126;2022-12-08T11:22:51;10.70;38.50
7700;DHT22;3892;47.794;19.126;2022-12-08T11:25:22;10.70;38.60
7700;DHT22;3892;47.794;19.126;2022-12-08T11:27:51;10.70;38.60
7700;DHT22;3892;47.794;19.126;2022-12-08T11:30:20;10.70;38.50
7700;DHT22;3892;47.794;19.126;2022-12-08T11:32:49;10.70;38.70
7700;DHT22;3892;47.794;19.126;2022-12-08T11:35:24;10.70;38.80
7700;DHT22;3892;47.794;19.126;2022-12-08T11:37:55;10.70;38.80
7700;DHT22;3892;47.794;19.126;2022-12-08T11:40:28;10.70;39.10
7700;DHT22;3892;47.794;19.126;2022-12-08T11:43:04;10.70;39.10
7700;DHT22;3892;47.794;19.126;2022-12-08T11:45:34;10.70;39.10
7700;DHT22;3892;47.794;19.126;2022-12-08T11:48:08;10.80;39.30
7700;DHT22;3892;47.794;19.126;2022-12-08T11:50:46;11.00;39.10
7700;DHT22;3892;47.794;19.126;2022-12-08T11:53:22;11.10;39.30
7700;DHT22;3892;47.794;19.126;2022-12-08T11:55:56;11.30;39.00
7700;DHT22;3892;47.794;19.126;2022-12-08T11:58:26;11.40;38.60
7700;DHT22;3892;47.794;19.126;2022-12-08T12:00:57;11.40;38.50
7700;DHT22;3892;47.794;19.126;2022-12-08T12:03:28;11.60;38.70
7700;DHT22;3892;47.794;19.126;2022-12-08T12:06:47;11.60;37.60
7700;DHT22;3892;47.794;19.126;2022-12-08T12:09:20;11.60;37.50
7700;DHT22;3892;47.794;19.126;2022-12-08T12:12:04;11.60;37.60
7700;DHT22;3892;47.794;19.126;2022-12-08T12:15:14;11.60;37.50
7700;DHT22;3892;47.794;19.126;2022-12-08T12:17:48;11.60;37.40
7700;DHT22;3892;47.794;19.126;2022-12-08T12:20:20;11.50;37.50
7700;DHT22;3892;47.794;19.126;2022-12-08T12:22:53;11.50;37.30
7700;DHT22;3892;47.794;19.126;2022-12-08T12:25:24;11.50;37.30
7700;DHT22;3892;47.794;19.126;2022-12-08T12:27:57;11.50;37.30
7700;DHT22;3892;47.794;19.126;2022-12-08T12:30:27;11.50;37.30
7700;DHT22;3892;47.794;19.126;2022-12-08T12:32:59;11.60;37.50
7700;DHT22;3892;47.794;19.126;2022-12-08T12:35:32;11.60;37.50
7700;DHT22;3892;47.794;19.126;2022-12-08T12:38:03;11.60;37.40
7700;DHT22;3892;47.794;19.126;2022-12-08T12:40:58;11.60;37.30
7700;DHT22;3892;47.794;19.126;2022-12-08T12:43:32;11.60;37.30
7700;DHT22;3892;47.794;19.126;2022-12-08T12:46:39;11.50;37.30
7700;DHT22;3892;47.794;19.126;2022-12-08T12:52:38;11.40;37.30
7700;DHT22;3892;47.794;19.126;2022-12-08T13:04:08;11.20;37.00
7700;DHT22;3892;47.794;19.126;2022-12-08T13:06:40;11.20;37.30
7700;DHT22;3892;47.794;19.126;2022-12-08T13:09:22;11.10;37.20
7700;DHT22;3892;47.794;19.126;2022-12-08T13:11:55;11.10;37.30
7700;DHT22;3892;47.794;19.126;2022-12-08T13:14:32;11.10;37.50
7700;DHT22;3892;47.794;19.126;2022-12-08T13:17:03;11.00;37.30
7700;DHT22;3892;47.794;19.126;2022-12-08T13:19:32;11.00;37.40
7700;DHT22;3892;47.794;19.126;2022-12-08T13:22:01;11.00;37.70
7700;DHT22;3892;47.794;19.126;2022-12-08T13:24:32;11.00;37.80
7700;DHT22;3892;47.794;19.126;2022-12-08T13:27:31;10.90;37.70
7700;DHT22;3892;47.794;19.126;2022-12-08T13:30:40;10.80;37.80
7700;DHT22;3892;47.794;19.126;2022-12-08T13:33:11;10.80;38.20
7700;DHT22;3892;47.794;19.126;2022-12-08T13:35:46;10.80;38.40
7700;DHT22;3892;47.794;19.126;2022-12-08T13:38:16;10.70;38.20
7700;DHT22;3892;47.794;19.126;2022-12-08T13:40:46;10.70;38.50
7700;DHT22;3892;47.794;19.126;2022-12-08T13:43:17;10.70;38.60
7700;DHT22;3892;47.794;19.126;2022-12-08T13:45:46;10.80;38.70
7700;DHT22;3892;47.794;19.126;2022-12-08T13:48:17;10.80;39.40
7700;DHT22;3892;47.794;19.126;2022-12-08T13:50:53;10.90;38.90
7700;DHT22;3892;47.794;19.126;2022-12-08T13:53:25;11.00;39.00
7700;DHT22;3892;47.794;19.126;2022-12-08T13:55:55;11.00;38.90
7700;DHT22;3892;47.794;19.126;2022-12-08T13:58:25;11.00;38.70
7700;DHT22;3892;47.794;19.126;2022-12-08T14:01:01;11.00;38.70
7700;DHT22;3892;47.794;19.126;2022-12-08T14:03:28;11.00;38.60
7700;DHT22;3892;47.794;19.126;2022-12-08T14:05:57;11.00;38.60
7700;DHT22;3892;47.794;19.126;2022-12-08T14:08:28;11.00;38.80
7700;DHT22;3892;47.794;19.126;2022-12-08T14:10:58;11.00;38.70
7700;DHT22;3892;47.794;19.126;2022-12-08T14:13:29;11.10;39.00
7700;DHT22;3892;47.794;19.126;2022-12-08T14:15:56;11.10;39.20
7700;DHT22;3892;47.794;19.126;2022-12-08T14:18:25;11.10;39.30
7700;DHT22;3892;47.794;19.126;2022-12-08T14:21:01;11.10;39.50
7700;DHT22;3892;47.794;19.126;2022-12-08T14:23:28;11.20;39.20
7700;DHT22;3892;47.794;19.126;2022-12-08T14:25:55;11.10;39.40
7700;DHT22;3892;47.794;19.126;2022-12-08T14:28:23;11.10;39.60
7700;DHT22;3892;47.794;19.126;2022-12-08T14:30:51;11.10;39.40
7700;DHT22;3892;47.794;19.126;2022-12-08T14:33:18;11.10;39.30
7700;DHT22;3892;47.794;19.126;2022-12-08T14:35:50;11.20;39.50
7700;DHT22;3892;47.794;19.126;2022-12-08T14:38:20;11.20;39.60
7700;DHT22;3892;47.794;19.126;2022-12-08T14:40:48;11.20;39.70
7700;DHT22;3892;47.794;19.126;2022-12-08T14:43:26;11.20;40.50
7700;DHT22;3892;47.794;19.126;2022-12-08T14:45:58;11.20;39.70
7700;DHT22;3892;47.794;19.126;2022-12-08T14:48:39;11.20;39.70
7700;DHT22;3892;47.794;19.126;2022-12-08T14:51:13;11.20;39.60
7700;DHT22;3892;47.794;19.126;2022-12-08T14:53:46;11.20;39.50
7700;DHT22;3892;47.794;19.126;2022-12-08T14:56:20;11.20;39.60
7700;DHT22;3892;47.794;19.126;2022-12-08T14:58:49;11.10;39.60
7700;DHT22;3892;47.794;19.126;2022-12-08T15:01:27;11.00;39.70
7700;DHT22;3892;47.794;19.126;2022-12-08T15:04:00;10.90;39.40
7700;DHT22;3892;47.794;19.126;2022-12-08T15:06:27;10.80;39.40
7700;DHT22;3892;47.794;19.126;2022-12-08T15:08:57;10.80;39.60
7700;DHT22;3892;47.794;19.126;2022-12-08T15:11:33;10.80;39.80
7700;DHT22;3892;47.794;19.126;2022-12-08T15:14:01;10.60;39.60
7700;DHT22;3892;47.794;19.126;2022-12-08T15:16:36;10.60;39.90
7700;DHT22;3892;47.794;19.126;2022-12-08T15:19:13;10.70;39.90
7700;DHT22;3892;47.794;19.126;2022-12-08T15:21:42;10.60;39.70
7700;DHT22;3892;47.794;19.126;2022-12-08T15:24:12;10.60;39.50
7700;DHT22;3892;47.794;19.126;2022-12-08T15:26:42;10.60;39.40
7700;DHT22;3892;47.794;19.126;2022-12-08T15:29:12;10.60;39.40
7700;DHT22;3892;47.794;19.126;2022-12-08T15:31:39;10.70;39.50
7700;DHT22;3892;47.794;19.126;2022-12-08T15:34:06;10.80;39.60
7700;DHT22;3892;47.794;19.126;2022-12-08T15:36:33;10.80;39.80
7700;DHT22;3892;47.794;19.126;2022-12-08T15:39:17;10.80;40.00
7700;DHT22;3892;47.794;19.126;2022-12-08T15:41:47;10.90;39.90
7700;DHT22;3892;47.794;19.126;2022-12-08T15:44:14;11.00;39.80
7700;DHT22;3892;47.794;19.126;2022-12-08T15:46:41;10.90;39.80
7700;DHT22;3892;47.794;19.126;2022-12-08T15:49:15;10.90;39.50
7700;DHT22;3892;47.794;19.126;2022-12-08T15:51:42;10.90;39.20
7700;DHT22;3892;47.794;19.126;2022-12-08T15:54:09;11.00;39.30
7700;DHT22;3892;47.794;19.126;2022-12-08T15:56:37;10.90;39.40
7700;DHT22;3892;47.794;19.126;2022-12-08T15:59:12;10.80;39.40
7700;DHT22;3892;47.794;19.126;2022-12-08T16:01:41;10.80;39.60
7700;DHT22;3892;47.794;19.126;2022-12-08T16:04:12;10.60;39.50
7700;DHT22;3892;47.794;19.126;2022-12-08T16:06:40;10.60;39.80
7700;DHT22;3892;47.794;19.126;2022-12-08T16:09:14;10.50;39.90
7700;DHT22;3892;47.794;19.126;2022-12-08T16:11:41;10.50;39.80
7700;DHT22;3892;47.794;19.126;2022-12-08T16:14:27;10.60;39.80
7700;DHT22;3892;47.794;19.126;2022-12-08T16:16:54;10.60;40.10
7700;DHT22;3892;47.794;19.126;2022-12-08T16:19:21;10.70;40.30
7700;DHT22;3892;47.794;19.126;2022-12-08T16:21:48;10.70;40.10
7700;DHT22;3892;47.794;19.126;2022-12-08T16:24:15;10.70;40.00
7700;DHT22;3892;47.794;19.126;2022-12-08T16:26:42;10.70;40.10
7700;DHT22;3892;47.794;19.126;2022-12-08T16:29:16;10.70;40.00